sensor_id;sensor_type;location;lat;lon;timestamp;temperature;humidity
21672;DHT22;10997;52.242;8.168;2022-07-23T00:04:12;14.50;99.90
21672;DHT22;10997;52.242;8.168;2022-07-23T00:09:13;14.40;99.90
21672;DHT22;10997;52.242;8.168;2022-07-23T00:14:13;14.50;99.90
21672;DHT22;10997;52.242;8.168;2022-07-23T00:19:15;14.70;99.90
21672;DHT22;10997;52.242;8.168;2022-07-23T00:24:16;14.70;99.90
21672;DHT22;10997;52.242;8.168;2022-07-23T00:29:16;14.80;99.90
21672;DHT22;10997;52.242;8.168;2022-07-23T00:34:17;14.70;99.90
21672;DHT22;10997;52.242;8.168;2022-07-23T00:39:18;14.70;99.90
21672;DHT22;10997;52.242;8.168;2022-07-23T00:44:22;14.70;99.90
21672;DHT22;10997;52.242;8.168;2022-07-23T00:49:28;14.70;99.90
21672;DHT22;10997;52.242;8.168;2022-07-23T00:54:29;14.70;99.90
21672;DHT22;10997;52.242;8.168;2022-07-23T00:59:30;14.70;99.90
21672;DHT22;10997;52.242;8.168;2022-07-23T01:04:31;14.80;99.90
21672;DHT22;10997;52.242;8.168;2022-07-23T01:09:32;14.90;99.90
21672;DHT22;10997;52.242;8.168;2022-07-23T01:14:32;14.90;99.90
21672;DHT22;10997;52.242;8.168;2022-07-23T01:19:33;14.90;99.90
21672;DHT22;10997;52.242;8.168;2022-07-23T01:24:34;15.00;99.90
21672;DHT22;10997;52.242;8.168;2022-07-23T01:29:34;15.00;99.90
21672;DHT22;10997;52.242;8.168;2022-07-23T01:34:35;15.10;99.90
21672;DHT22;10997;52.242;8.168;2022-07-23T01:39:36;15.10;99.90
21672;DHT22;10997;52.242;8.168;2022-07-23T01:44:36;15.10;99.90
21672;DHT22;10997;52.242;8.168;2022-07-23T01:49:37;15.10;99.90
21672;DHT22;10997;52.242;8.168;2022-07-23T01:54:38;15.10;99.90
21672;DHT22;10997;52.242;8.168;2022-07-23T01:59:39;15.10;99.90
21672;DHT22;10997;52.242;8.168;2022-07-23T02:04:40;15.10;99.90
21672;DHT22;10997;52.242;8.168;2022-07-23T02:09:41;15.00;99.90
21672;DHT22;10997;52.242;8.168;2022-07-23T02:14:41;15.00;99.90
21672;DHT22;10997;52.242;8.168;2022-07-23T02:19:42;15.00;99.90
21672;DHT22;10997;52.242;8.168;2022-07-23T02:24:43;15.00;99.90
21672;DHT22;10997;52.242;8.168;2022-07-23T02:29:43;15.10;99.90
21672;DHT22;10997;52.242;8.168;2022-07-23T02:34:44;15.10;99.90
21672;DHT22;10997;52.242;8.168;2022-07-23T02:39:45;15.10;99.90
21672;DHT22;10997;52.242;8.168;2022-07-23T02:44:45;15.00;99.90
21672;DHT22;10997;52.242;8.168;2022-07-23T02:49:46;15.00;99.90
21672;DHT22;10997;52.242;8.168;2022-07-23T02:54:46;14.90;99.90
21672;DHT22;10997;52.242;8.168;2022-07-23T02:59:47;14.90;99.90
21672;DHT22;10997;52.242;8.168;2022-07-23T03:04:48;15.00;99.90
21672;DHT22;10997;52.242;8.168;2022-07-23T03:09:49;15.00;99.90
21672;DHT22;10997;52.242;8.168;2022-07-23T03:14:50;15.00;99.90
21672;DHT22;10997;52.242;8.168;2022-07-23T03:19:50;15.00;99.90
21672;DHT22;10997;52.242;8.168;2022-07-23T03:24:51;14.90;99.90
21672;DHT22;10997;52.242;8.168;2022-07-23T03:29:57;14.80;99.90
21672;DHT22;10997;52.242;8.168;2022-07-23T03:34:58;14.80;99.90
21672;DHT22;10997;52.242;8.168;2022-07-23T03:39:59;14.80;99.90
21672;DHT22;10997;52.242;8.168;2022-07-23T03:44:59;14.70;99.90
21672;DHT22;10997;52.242;8.168;2022-07-23T03:50:01;14.70;99.90
21672;DHT22;10997;52.242;8.168;2022-07-23T03:55:02;14.80;99.90
21672;DHT22;10997;52.242;8.168;2022-07-23T04:00:05;14.70;99.90
21672;DHT22;10997;52.242;8.168;2022-07-23T04:05:07;14.70;99.90
21672;DHT22;10997;52.242;8.168;2022-07-23T04:10:08;14.70;99.90
21672;DHT22;10997;52.242;8.168;2022-07-23T04:15:09;14.70;99.90
21672;DHT22;10997;52.242;8.168;2022-07-23T04:20:10;14.70;99.90
21672;DHT22;10997;52.242;8.168;2022-07-23T04:25:11;14.70;99.90
21672;DHT22;10997;52.242;8.168;2022-07-23T04:30:14;14.70;99.90
21672;DHT22;10997;52.242;8.168;2022-07-23T04:35:14;14.80;99.90
21672;DHT22;10997;52.242;8.168;2022-07-23T04:40:15;14.90;99.90
21672;DHT22;10997;52.242;8.168;2022-07-23T04:45:15;15.10;99.90
21672;DHT22;10997;52.242;8.168;2022-07-23T04:50:17;15.20;99.90
21672;DHT22;10997;52.242;8.168;2022-07-23T04:55:21;15.20;99.90
21672;DHT22;10997;52.242;8.168;2022-07-23T05:00:22;15.20;99.90
21672;DHT22;10997;52.242;8.168;2022-07-23T05:05:23;15.30;99.90
21672;DHT22;10997;52.242;8.168;2022-07-23T05:10:23;15.40;99.90
21672;DHT22;10997;52.242;8.168;2022-07-23T05:15:24;15.40;99.90
21672;DHT22;10997;52.242;8.168;2022-07-23T05:20:25;15.50;99.90
21672;DHT22;10997;52.242;8.168;2022-07-23T05:25:26;15.60;99.90
21672;DHT22;10997;52.242;8.168;2022-07-23T05:30:27;15.80;99.90
21672;DHT22;10997;52.242;8.168;2022-07-23T05:35:27;15.80;99.90
21672;DHT22;10997;52.242;8.168;2022-07-23T05:40:28;16.00;99.90
21672;DHT22;10997;52.242;8.168;2022-07-23T05:45:29;16.00;99.90
21672;DHT22;10997;52.242;8.168;2022-07-23T05:50:30;16.20;99.90
21672;DHT22;10997;52.242;8.168;2022-07-23T05:55:31;16.10;99.90
21672;DHT22;10997;52.242;8.168;2022-07-23T06:00:32;16.20;99.90
21672;DHT22;10997;52.242;8.168;2022-07-23T06:05:32;16.20;99.90
21672;DHT22;10997;52.242;8.168;2022-07-23T06:10:33;16.40;99.90
21672;DHT22;10997;52.242;8.168;2022-07-23T06:15:34;16.50;99.90
21672;DHT22;10997;52.242;8.168;2022-07-23T06:20:34;16.50;99.90
21672;DHT22;10997;52.242;8.168;2022-07-23T06:25:35;16.50;99.90
21672;DHT22;10997;52.242;8.168;2022-07-23T06:30:35;16.60;99.90
21672;DHT22;10997;52.242;8.168;2022-07-23T06:35:36;16.60;99.90
21672;DHT22;10997;52.242;8.168;2022-07-23T06:40:37;16.70;99.90
21672;DHT22;10997;52.242;8.168;2022-07-23T06:45:37;17.00;99.90
21672;DHT22;10997;52.242;8.168;2022-07-23T06:50:38;17.40;99.90
21672;DHT22;10997;52.242;8.168;2022-07-23T06:55:39;17.40;99.90
21672;DHT22;10997;52.242;8.168;2022-07-23T07:00:40;17.70;99.90
21672;DHT22;10997;52.242;8.168;2022-07-23T07:05:41;17.70;99.90
21672;DHT22;10997;52.242;8.168;2022-07-23T07:10:42;17.40;99.90
21672;DHT22;10997;52.242;8.168;2022-07-23T07:15:43;17.40;99.90
21672;DHT22;10997;52.242;8.168;2022-07-23T07:20:43;17.10;99.90
21672;DHT22;10997;52.242;8.168;2022-07-23T07:25:44;17.20;99.90
21672;DHT22;10997;52.242;8.168;2022-07-23T07:30:45;17.30;99.90
21672;DHT22;10997;52.242;8.168;2022-07-23T07:35:45;17.30;99.90
21672;DHT22;10997;52.242;8.168;2022-07-23T07:40:46;17.60;99.90
21672;DHT22;10997;52.242;8.168;2022-07-23T07:45:47;18.00;99.90
21672;DHT22;10997;52.242;8.168;2022-07-23T07:50:47;18.20;99.90
21672;DHT22;10997;52.242;8.168;2022-07-23T07:55:48;17.90;99.90
21672;DHT22;10997;52.242;8.168;2022-07-23T08:00:49;17.70;99.90
21672;DHT22;10997;52.242;8.168;2022-07-23T08:05:49;17.80;99.90
21672;DHT22;10997;52.242;8.168;2022-07-23T08:10:50;18.40;99.90
21672;DHT22;10997;52.242;8.168;2022-07-23T08:15:51;18.50;99.90
21672;DHT22;10997;52.242;8.168;2022-07-23T08:20:53;18.50;99.90
21672;DHT22;10997;52.242;8.168;2022-07-23T08:25:54;18.90;99.90
21672;DHT22;10997;52.242;8.168;2022-07-23T08:30:57;19.00;99.90
21672;DHT22;10997;52.242;8.168;2022-07-23T08:35:58;18.50;99.90
21672;DHT22;10997;52.242;8.168;2022-07-23T08:40:59;18.80;99.90
21672;DHT22;10997;52.242;8.168;2022-07-23T08:46:01;18.80;99.90
21672;DHT22;10997;52.242;8.168;2022-07-23T08:51:04;19.10;99.90
21672;DHT22;10997;52.242;8.168;2022-07-23T08:56:05;19.50;99.90
21672;DHT22;10997;52.242;8.168;2022-07-23T09:01:06;19.50;99.90
21672;DHT22;10997;52.242;8.168;2022-07-23T09:06:07;19.30;99.90
21672;DHT22;10997;52.242;8.168;2022-07-23T09:11:09;19.80;99.90
21672;DHT22;10997;52.242;8.168;2022-07-23T09:16:15;19.90;99.90
21672;DHT22;10997;52.242;8.168;2022-07-23T09:21:35;19.10;99.90
21672;DHT22;10997;52.242;8.168;2022-07-23T09:31:43;19.80;99.90
21672;DHT22;10997;52.242;8.168;2022-07-23T09:36:44;20.10;99.90
21672;DHT22;10997;52.242;8.168;2022-07-23T09:41:46;20.00;99.90
21672;DHT22;10997;52.242;8.168;2022-07-23T09:46:48;19.70;99.90
21672;DHT22;10997;52.242;8.168;2022-07-23T09:51:55;20.10;99.90
21672;DHT22;10997;52.242;8.168;2022-07-23T09:56:59;20.20;99.90
21672;DHT22;10997;52.242;8.168;2022-07-23T10:02:00;20.40;99.90
21672;DHT22;10997;52.242;8.168;2022-07-23T10:07:04;20.10;99.90
21672;DHT22;10997;52.242;8.168;2022-07-23T10:12:10;20.00;99.90
21672;DHT22;10997;52.242;8.168;2022-07-23T10:17:44;20.40;99.90
21672;DHT22;10997;52.242;8.168;2022-07-23T10:22:50;20.70;99.90
21672;DHT22;10997;52.242;8.168;2022-07-23T10:43:35;21.50;99.90
21672;DHT22;10997;52.242;8.168;2022-07-23T10:48:36;21.40;99.90
21672;DHT22;10997;52.242;8.168;2022-07-23T10:58:52;21.90;99.90
21672;DHT22;10997;52.242;8.168;2022-07-23T11:03:56;22.00;99.90
21672;DHT22;10997;52.242;8.168;2022-07-23T11:15:20;22.50;99.90
21672;DHT22;10997;52.242;8.168;2022-07-23T11:20:17;22.40;99.90
21672;DHT22;10997;52.242;8.168;2022-07-23T11:35:28;22.70;99.90
21672;DHT22;10997;52.242;8.168;2022-07-23T11:40:31;22.80;99.90
21672;DHT22;10997;52.242;8.168;2022-07-23T11:45:40;22.60;99.90
21672;DHT22;10997;52.242;8.168;2022-07-23T11:50:41;22.80;99.90
21672;DHT22;10997;52.242;8.168;2022-07-23T11:55:42;23.00;99.90
21672;DHT22;10997;52.242;8.168;2022-07-23T12:00:42;23.30;99.90
21672;DHT22;10997;52.242;8.168;2022-07-23T12:05:43;23.40;99.90
21672;DHT22;10997;52.242;8.168;2022-07-23T12:10:44;23.10;99.90
21672;DHT22;10997;52.242;8.168;2022-07-23T12:15:48;23.20;99.90
21672;DHT22;10997;52.242;8.168;2022-07-23T12:20:54;23.20;99.90
21672;DHT22;10997;52.242;8.168;2022-07-23T12:26:01;23.70;99.90
21672;DHT22;10997;52.242;8.168;2022-07-23T12:31:02;23.50;99.90
21672;DHT22;10997;52.242;8.168;2022-07-23T12:36:05;23.40;99.90
21672;DHT22;10997;52.242;8.168;2022-07-23T12:41:06;23.50;99.90
21672;DHT22;10997;52.242;8.168;2022-07-23T12:46:09;24.20;99.90
21672;DHT22;10997;52.242;8.168;2022-07-23T12:51:19;23.70;99.90
21672;DHT22;10997;52.242;8.168;2022-07-23T12:56:29;23.80;99.90
21672;DHT22;10997;52.242;8.168;2022-07-23T13:01:32;23.30;99.90
21672;DHT22;10997;52.242;8.168;2022-07-23T13:06:38;23.60;99.90
21672;DHT22;10997;52.242;8.168;2022-07-23T13:11:41;23.70;99.90
21672;DHT22;10997;52.242;8.168;2022-07-23T13:16:42;23.90;99.90
21672;DHT22;10997;52.242;8.168;2022-07-23T13:21:43;24.00;99.90
21672;DHT22;10997;52.242;8.168;2022-07-23T13:26:44;24.30;99.90
21672;DHT22;10997;52.242;8.168;2022-07-23T13:31:46;24.60;99.90
21672;DHT22;10997;52.242;8.168;2022-07-23T13:36:50;24.50;99.90
21672;DHT22;10997;52.242;8.168;2022-07-23T13:41:51;24.70;99.90
21672;DHT22;10997;52.242;8.168;2022-07-23T13:46:51;24.80;99.90
21672;DHT22;10997;52.242;8.168;2022-07-23T13:51:52;24.60;99.90
21672;DHT22;10997;52.242;8.168;2022-07-23T13:56:53;24.70;99.90
21672;DHT22;10997;52.242;8.168;2022-07-23T14:01:54;24.40;99.90
21672;DHT22;10997;52.242;8.168;2022-07-23T14:06:55;24.40;99.90
21672;DHT22;10997;52.242;8.168;2022-07-23T14:11:55;24.60;99.90
21672;DHT22;10997;52.242;8.168;2022-07-23T14:16:56;24.80;99.90
21672;DHT22;10997;52.242;8.168;2022-07-23T14:21:57;24.60;99.90
21672;DHT22;10997;52.242;8.168;2022-07-23T14:27:00;24.40;99.90
21672;DHT22;10997;52.242;8.168;2022-07-23T14:32:02;24.40;99.90
21672;DHT22;10997;52.242;8.168;2022-07-23T14:37:03;24.40;99.90
21672;DHT22;10997;52.242;8.168;2022-07-23T14:42:04;24.70;99.90
21672;DHT22;10997;52.242;8.168;2022-07-23T14:47:05;24.50;99.90
21672;DHT22;10997;52.242;8.168;2022-07-23T14:52:07;24.50;99.90
21672;DHT22;10997;52.242;8.168;2022-07-23T14:57:08;24.70;99.90
21672;DHT22;10997;52.242;8.168;2022-07-23T15:02:09;24.60;99.90
21672;DHT22;10997;52.242;8.168;2022-07-23T15:07:10;24.90;99.90
21672;DHT22;10997;52.242;8.168;2022-07-23T15:12:11;24.70;99.90
21672;DHT22;10997;52.242;8.168;2022-07-23T15:17:11;24.70;99.90
21672;DHT22;10997;52.242;8.168;2022-07-23T15:22:12;24.90;99.90
21672;DHT22;10997;52.242;8.168;2022-07-23T15:27:13;25.30;99.80
21672;DHT22;10997;52.242;8.168;2022-07-23T15:32:13;25.30;99.50
21672;DHT22;10997;52.242;8.168;2022-07-23T15:37:14;25.30;99.80
21672;DHT22;10997;52.242;8.168;2022-07-23T15:42:15;25.60;99.40
21672;DHT22;10997;52.242;8.168;2022-07-23T15:47:17;25.90;98.60
21672;DHT22;10997;52.242;8.168;2022-07-23T15:52:18;25.80;98.10
21672;DHT22;10997;52.242;8.168;2022-07-23T15:57:19;25.40;98.90
21672;DHT22;10997;52.242;8.168;2022-07-23T16:02:19;25.30;98.60
21672;DHT22;10997;52.242;8.168;2022-07-23T16:07:20;25.50;98.40
21672;DHT22;10997;52.242;8.168;2022-07-23T16:12:21;24.80;99.00
21672;DHT22;10997;52.242;8.168;2022-07-23T16:17:22;24.50;99.90
21672;DHT22;10997;52.242;8.168;2022-07-23T16:22:22;25.00;99.50
21672;DHT22;10997;52.242;8.168;2022-07-23T16:27:23;25.10;98.90
21672;DHT22;10997;52.242;8.168;2022-07-23T16:32:24;24.90;99.00
21672;DHT22;10997;52.242;8.168;2022-07-23T16:37:24;24.00;99.50
21672;DHT22;10997;52.242;8.168;2022-07-23T16:42:25;23.90;99.80
21672;DHT22;10997;52.242;8.168;2022-07-23T16:47:26;24.20;99.80
21672;DHT22;10997;52.242;8.168;2022-07-23T16:52:27;24.60;99.30
21672;DHT22;10997;52.242;8.168;2022-07-23T16:57:27;24.80;98.90
21672;DHT22;10997;52.242;8.168;2022-07-23T17:02:28;24.70;99.00
21672;DHT22;10997;52.242;8.168;2022-07-23T17:07:29;24.30;99.80
21672;DHT22;10997;52.242;8.168;2022-07-23T17:12:30;24.70;98.90
21672;DHT22;10997;52.242;8.168;2022-07-23T17:17:30;24.80;98.10
21672;DHT22;10997;52.242;8.168;2022-07-23T17:22:31;24.40;98.80
21672;DHT22;10997;52.242;8.168;2022-07-23T17:27:32;24.20;99.10
21672;DHT22;10997;52.242;8.168;2022-07-23T17:32:33;24.50;99.30
21672;DHT22;10997;52.242;8.168;2022-07-23T17:37:34;24.70;98.90
21672;DHT22;10997;52.242;8.168;2022-07-23T17:42:35;25.10;98.50
21672;DHT22;10997;52.242;8.168;2022-07-23T17:47:37;24.90;98.30
21672;DHT22;10997;52.242;8.168;2022-07-23T17:52:54;24.90;98.50
21672;DHT22;10997;52.242;8.168;2022-07-23T17:57:55;24.70;98.90
21672;DHT22;10997;52.242;8.168;2022-07-23T18:02:58;24.40;99.40
21672;DHT22;10997;52.242;8.168;2022-07-23T18:07:59;24.00;99.30
21672;DHT22;10997;52.242;8.168;2022-07-23T18:13:04;24.30;99.90
21672;DHT22;10997;52.242;8.168;2022-07-23T18:18:05;25.00;99.60
21672;DHT22;10997;52.242;8.168;2022-07-23T18:23:06;24.90;99.80
21672;DHT22;10997;52.242;8.168;2022-07-23T18:28:07;24.60;99.80
21672;DHT22;10997;52.242;8.168;2022-07-23T18:33:08;24.20;99.70
21672;DHT22;10997;52.242;8.168;2022-07-23T18:38:09;24.10;99.90
21672;DHT22;10997;52.242;8.168;2022-07-23T18:43:09;23.90;99.90
21672;DHT22;10997;52.242;8.168;2022-07-23T18:48:10;23.80;99.90
21672;DHT22;10997;52.242;8.168;2022-07-23T18:53:11;24.00;99.90
21672;DHT22;10997;52.242;8.168;2022-07-23T18:58:12;24.40;99.90
21672;DHT22;10997;52.242;8.168;2022-07-23T19:03:13;24.00;99.90
21672;DHT22;10997;52.242;8.168;2022-07-23T19:08:14;23.80;99.90
21672;DHT22;10997;52.242;8.168;2022-07-23T19:13:14;23.90;99.90
21672;DHT22;10997;52.242;8.168;2022-07-23T19:18:15;23.70;99.90
21672;DHT22;10997;52.242;8.168;2022-07-23T19:23:16;23.50;99.90
21672;DHT22;10997;52.242;8.168;2022-07-23T19:28:17;23.10;99.90
21672;DHT22;10997;52.242;8.168;2022-07-23T19:33:18;22.70;99.90
21672;DHT22;10997;52.242;8.168;2022-07-23T19:38:18;22.40;99.90
21672;DHT22;10997;52.242;8.168;2022-07-23T19:43:19;22.10;99.90
21672;DHT22;10997;52.242;8.168;2022-07-23T19:48:20;21.80;99.90
21672;DHT22;10997;52.242;8.168;2022-07-23T19:53:21;21.50;99.90
21672;DHT22;10997;52.242;8.168;2022-07-23T19:58:21;21.30;99.90
21672;DHT22;10997;52.242;8.168;2022-07-23T20:03:22;21.00;99.90
21672;DHT22;10997;52.242;8.168;2022-07-23T20:08:23;20.70;99.90
21672;DHT22;10997;52.242;8.168;2022-07-23T20:13:24;20.50;99.90
21672;DHT22;10997;52.242;8.168;2022-07-23T20:18:24;20.30;99.90
21672;DHT22;10997;52.242;8.168;2022-07-23T20:23:27;20.00;99.90
21672;DHT22;10997;52.242;8.168;2022-07-23T20:28:28;19.80;99.90
21672;DHT22;10997;52.242;8.168;2022-07-23T20:33:29;19.60;99.90
21672;DHT22;10997;52.242;8.168;2022-07-23T20:38:30;19.50;99.90
21672;DHT22;10997;52.242;8.168;2022-07-23T20:43:31;19.30;99.90
21672;DHT22;10997;52.242;8.168;2022-07-23T20:48:32;19.10;99.90
21672;DHT22;10997;52.242;8.168;2022-07-23T20:53:32;18.90;99.90
21672;DHT22;10997;52.242;8.168;2022-07-23T20:58:33;18.80;99.90
21672;DHT22;10997;52.242;8.168;2022-07-23T21:03:34;18.70;99.90
21672;DHT22;10997;52.242;8.168;2022-07-23T21:08:34;18.60;99.90
21672;DHT22;10997;52.242;8.168;2022-07-23T21:13:35;18.50;99.90
21672;DHT22;10997;52.242;8.168;2022-07-23T21:18:36;18.40;99.90
21672;DHT22;10997;52.242;8.168;2022-07-23T21:23:39;18.20;99.90
21672;DHT22;10997;52.242;8.168;2022-07-23T21:28:40;18.10;99.90
21672;DHT22;10997;52.242;8.168;2022-07-23T21:33:41;17.90;99.90
21672;DHT22;10997;52.242;8.168;2022-07-23T21:38:43;17.80;99.90
21672;DHT22;10997;52.242;8.168;2022-07-23T21:43:44;17.70;99.90
21672;DHT22;10997;52.242;8.168;2022-07-23T21:48:44;17.60;99.90
21672;DHT22;10997;52.242;8.168;2022-07-23T21:53:45;17.60;99.90
21672;DHT22;10997;52.242;8.168;2022-07-23T21:58:46;17.50;99.90
21672;DHT22;10997;52.242;8.168;2022-07-23T22:03:47;17.50;99.90
21672;DHT22;10997;52.242;8.168;2022-07-23T22:08:48;17.40;99.90
21672;DHT22;10997;52.242;8.168;2022-07-23T22:13:48;17.20;99.90
21672;DHT22;10997;52.242;8.168;2022-07-23T22:18:49;17.20;99.90
21672;DHT22;10997;52.242;8.168;2022-07-23T22:23:50;17.10;99.90
21672;DHT22;10997;52.242;8.168;2022-07-23T22:28:50;17.10;99.90
21672;DHT22;10997;52.242;8.168;2022-07-23T22:33:51;17.00;99.90
21672;DHT22;10997;52.242;8.168;2022-07-23T22:38:52;16.80;99.90
21672;DHT22;10997;52.242;8.168;2022-07-23T22:43:52;16.70;99.90
21672;DHT22;10997;52.242;8.168;2022-07-23T22:48:53;16.70;99.90
21672;DHT22;10997;52.242;8.168;2022-07-23T22:53:54;16.60;99.90
21672;DHT22;10997;52.242;8.168;2022-07-23T22:58:54;16.60;99.90
21672;DHT22;10997;52.242;8.168;2022-07-23T23:03:55;16.50;99.90
21672;DHT22;10997;52.242;8.168;2022-07-23T23:08:56;16.40;99.90
21672;DHT22;10997;52.242;8.168;2022-07-23T23:13:56;16.30;99.90
21672;DHT22;10997;52.242;8.168;2022-07-23T23:18:57;16.20;99.90
21672;DHT22;10997;52.242;8.168;2022-07-23T23:23:58;16.10;99.90
21672;DHT22;10997;52.242;8.168;2022-07-23T23:28:58;16.00;99.90
21672;DHT22;10997;52.242;8.168;2022-07-23T23:33:59;15.90;99.90
21672;DHT22;10997;52.242;8.168;2022-07-23T23:39:00;15.90;99.90
21672;DHT22;10997;52.242;8.168;2022-07-23T23:44:00;15.80;99.90
21672;DHT22;10997;52.242;8.168;2022-07-23T23:49:01;15.80;99.90
21672;DHT22;10997;52.242;8.168;2022-07-23T23:54:02;15.70;99.90
21672;DHT22;10997;52.242;8.168;2022-07-23T23:59:03;15.60;99.90
